sensor_id;sensor_type;location;lat;lon;timestamp;P1;durP1;ratioP1;P2;durP2;ratioP2
22673;SDS011;11504;43.334;21.918;2023-06-14T00:02:28;9.0;;;8.0;;
22673;SDS011;11504;43.334;21.918;2023-06-14T00:07:05;9.0;;;8.0;;
22673;SDS011;11504;43.334;21.918;2023-06-14T00:11:42;9.0;;;8.0;;
22673;SDS011;11504;43.334;21.918;2023-06-14T00:16:20;9.0;;;8.0;;
22673;SDS011;11504;43.334;21.918;2023-06-14T00:20:57;9.0;;;9.0;;
22673;SDS011;11504;43.334;21.918;2023-06-14T00:25:33;9.0;;;9.0;;
22673;SDS011;11504;43.334;21.918;2023-06-14T00:30:10;9.0;;;8.0;;
22673;SDS011;11504;43.334;21.918;2023-06-14T00:34:49;9.0;;;8.0;;
22673;SDS011;11504;43.334;21.918;2023-06-14T00:39:26;9.0;;;8.0;;
22673;SDS011;11504;43.334;21.918;2023-06-14T00:44:02;9.0;;;8.0;;
22673;SDS011;11504;43.334;21.918;2023-06-14T00:48:40;9.0;;;8.0;;
22673;SDS011;11504;43.334;21.918;2023-06-14T00:53:18;9.0;;;8.0;;
22673;SDS011;11504;43.334;21.918;2023-06-14T00:57:56;9.0;;;9.0;;
22673;SDS011;11504;43.334;21.918;2023-06-14T01:02:34;9.0;;;9.0;;
22673;SDS011;11504;43.334;21.918;2023-06-14T01:07:15;8.0;;;8.0;;
22673;SDS011;11504;43.334;21.918;2023-06-14T01:12:50;8.0;;;8.0;;
22673;SDS011;11504;43.334;21.918;2023-06-14T01:17:59;8.0;;;8.0;;
22673;SDS011;11504;43.334;21.918;2023-06-14T01:22:43;8.0;;;8.0;;
22673;SDS011;11504;43.334;21.918;2023-06-14T01:27:29;8.0;;;8.0;;
22673;SDS011;11504;43.334;21.918;2023-06-14T01:32:07;8.0;;;8.0;;
22673;SDS011;11504;43.334;21.918;2023-06-14T01:36:45;9.0;;;8.0;;
22673;SDS011;11504;43.334;21.918;2023-06-14T01:41:31;9.0;;;8.0;;
22673;SDS011;11504;43.334;21.918;2023-06-14T01:46:12;9.0;;;8.0;;
22673;SDS011;11504;43.334;21.918;2023-06-14T01:50:52;9.0;;;8.0;;
22673;SDS011;11504;43.334;21.918;2023-06-14T01:55:29;9.0;;;8.0;;
22673;SDS011;11504;43.334;21.918;2023-06-14T02:00:06;9.0;;;9.0;;
22673;SDS011;11504;43.334;21.918;2023-06-14T02:04:49;9.0;;;9.0;;
22673;SDS011;11504;43.334;21.918;2023-06-14T02:09:25;8.0;;;8.0;;
22673;SDS011;11504;43.334;21.918;2023-06-14T02:14:03;8.0;;;8.0;;
22673;SDS011;11504;43.334;21.918;2023-06-14T02:18:40;8.0;;;8.0;;
22673;SDS011;11504;43.334;21.918;2023-06-14T02:23:16;8.0;;;8.0;;
22673;SDS011;11504;43.334;21.918;2023-06-14T02:27:53;8.0;;;8.0;;
22673;SDS011;11504;43.334;21.918;2023-06-14T02:32:31;8.0;;;8.0;;
22673;SDS011;11504;43.334;21.918;2023-06-14T02:37:07;9.0;;;8.0;;
22673;SDS011;11504;43.334;21.918;2023-06-14T02:41:44;9.0;;;8.0;;
22673;SDS011;11504;43.334;21.918;2023-06-14T02:46:20;9.0;;;8.0;;
22673;SDS011;11504;43.334;21.918;2023-06-14T02:50:57;8.0;;;8.0;;
22673;SDS011;11504;43.334;21.918;2023-06-14T02:55:34;8.0;;;8.0;;
22673;SDS011;11504;43.334;21.918;2023-06-14T03:00:10;8.0;;;8.0;;
22673;SDS011;11504;43.334;21.918;2023-06-14T03:04:49;8.0;;;8.0;;
22673;SDS011;11504;43.334;21.918;2023-06-14T03:09:26;8.0;;;8.0;;
22673;SDS011;11504;43.334;21.918;2023-06-14T03:14:02;8.0;;;8.0;;
22673;SDS011;11504;43.334;21.918;2023-06-14T03:18:38;9.0;;;7.0;;
22673;SDS011;11504;43.334;21.918;2023-06-14T03:23:15;9.0;;;7.0;;
22673;SDS011;11504;43.334;21.918;2023-06-14T03:27:51;10.0;;;8.0;;
22673;SDS011;11504;43.334;21.918;2023-06-14T03:32:27;10.0;;;8.0;;
22673;SDS011;11504;43.334;21.918;2023-06-14T03:37:04;11.0;;;9.0;;
22673;SDS011;11504;43.334;21.918;2023-06-14T03:41:41;11.0;;;9.0;;
22673;SDS011;11504;43.334;21.918;2023-06-14T03:46:17;11.0;;;9.0;;
22673;SDS011;11504;43.334;21.918;2023-06-14T03:50:54;10.0;;;9.0;;
22673;SDS011;11504;43.334;21.918;2023-06-14T03:55:30;10.0;;;9.0;;
22673;SDS011;11504;43.334;21.918;2023-06-14T04:00:08;9.0;;;9.0;;
22673;SDS011;11504;43.334;21.918;2023-06-14T04:04:49;9.0;;;9.0;;
22673;SDS011;11504;43.334;21.918;2023-06-14T04:09:26;10.0;;;10.0;;
22673;SDS011;11504;43.334;21.918;2023-06-14T04:14:02;10.0;;;10.0;;
22673;SDS011;11504;43.334;21.918;2023-06-14T04:18:41;12.0;;;11.0;;
22673;SDS011;11504;43.334;21.918;2023-06-14T04:23:18;12.0;;;11.0;;
22673;SDS011;11504;43.334;21.918;2023-06-14T04:27:55;14.0;;;12.0;;
22673;SDS011;11504;43.334;21.918;2023-06-14T04:32:31;14.0;;;12.0;;
22673;SDS011;11504;43.334;21.918;2023-06-14T04:37:08;15.0;;;14.0;;
22673;SDS011;11504;43.334;21.918;2023-06-14T04:41:45;15.0;;;14.0;;
22673;SDS011;11504;43.334;21.918;2023-06-14T04:46:22;15.0;;;14.0;;
22673;SDS011;11504;43.334;21.918;2023-06-14T04:50:58;12.0;;;11.0;;
22673;SDS011;11504;43.334;21.918;2023-06-14T04:55:35;12.0;;;11.0;;
22673;SDS011;11504;43.334;21.918;2023-06-14T05:00:11;9.0;;;8.0;;
22673;SDS011;11504;43.334;21.918;2023-06-14T05:04:50;9.0;;;8.0;;
22673;SDS011;11504;43.334;21.918;2023-06-14T05:09:27;8.0;;;7.0;;
22673;SDS011;11504;43.334;21.918;2023-06-14T05:14:03;8.0;;;7.0;;
22673;SDS011;11504;43.334;21.918;2023-06-14T05:18:41;8.0;;;6.0;;
22673;SDS011;11504;43.334;21.918;2023-06-14T05:23:17;8.0;;;6.0;;
22673;SDS011;11504;43.334;21.918;2023-06-14T05:27:54;8.0;;;6.0;;
22673;SDS011;11504;43.334;21.918;2023-06-14T05:32:30;8.0;;;6.0;;
22673;SDS011;11504;43.334;21.918;2023-06-14T05:37:07;7.0;;;6.0;;
22673;SDS011;11504;43.334;21.918;2023-06-14T05:41:43;7.0;;;6.0;;
22673;SDS011;11504;43.334;21.918;2023-06-14T05:46:20;7.0;;;6.0;;
22673;SDS011;11504;43.334;21.918;2023-06-14T05:50:59;6.0;;;6.0;;
22673;SDS011;11504;43.334;21.918;2023-06-14T05:55:35;6.0;;;6.0;;
22673;SDS011;11504;43.334;21.918;2023-06-14T06:00:12;6.0;;;5.0;;
22673;SDS011;11504;43.334;21.918;2023-06-14T06:04:52;6.0;;;5.0;;
22673;SDS011;11504;43.334;21.918;2023-06-14T06:09:29;8.0;;;6.0;;
22673;SDS011;11504;43.334;21.918;2023-06-14T06:14:05;8.0;;;6.0;;
22673;SDS011;11504;43.334;21.918;2023-06-14T06:18:42;9.0;;;7.0;;
22673;SDS011;11504;43.334;21.918;2023-06-14T06:23:19;9.0;;;7.0;;
22673;SDS011;11504;43.334;21.918;2023-06-14T06:27:56;10.0;;;6.0;;
22673;SDS011;11504;43.334;21.918;2023-06-14T06:32:33;10.0;;;6.0;;
22673;SDS011;11504;43.334;21.918;2023-06-14T06:37:10;10.0;;;6.0;;
22673;SDS011;11504;43.334;21.918;2023-06-14T06:41:48;10.0;;;6.0;;
22673;SDS011;11504;43.334;21.918;2023-06-14T06:46:25;10.0;;;6.0;;
22673;SDS011;11504;43.334;21.918;2023-06-14T06:51:01;8.0;;;6.0;;
22673;SDS011;11504;43.334;21.918;2023-06-14T06:55:38;8.0;;;6.0;;
22673;SDS011;11504;43.334;21.918;2023-06-14T07:00:15;7.0;;;6.0;;
22673;SDS011;11504;43.334;21.918;2023-06-14T07:04:56;7.0;;;6.0;;
22673;SDS011;11504;43.334;21.918;2023-06-14T07:09:33;7.0;;;6.0;;
22673;SDS011;11504;43.334;21.918;2023-06-14T07:14:09;7.0;;;6.0;;
22673;SDS011;11504;43.334;21.918;2023-06-14T07:18:46;7.0;;;5.0;;
22673;SDS011;11504;43.334;21.918;2023-06-14T07:23:23;7.0;;;5.0;;
22673;SDS011;11504;43.334;21.918;2023-06-14T07:27:59;8.0;;;6.0;;
22673;SDS011;11504;43.334;21.918;2023-06-14T07:32:36;8.0;;;6.0;;
22673;SDS011;11504;43.334;21.918;2023-06-14T07:37:14;8.0;;;7.0;;
22673;SDS011;11504;43.334;21.918;2023-06-14T07:41:50;8.0;;;7.0;;
22673;SDS011;11504;43.334;21.918;2023-06-14T07:46:27;8.0;;;7.0;;
22673;SDS011;11504;43.334;21.918;2023-06-14T07:51:04;10.0;;;8.0;;
22673;SDS011;11504;43.334;21.918;2023-06-14T07:55:41;10.0;;;8.0;;
22673;SDS011;11504;43.334;21.918;2023-06-14T08:00:17;11.0;;;8.0;;
22673;SDS011;11504;43.334;21.918;2023-06-14T08:04:57;11.0;;;8.0;;
22673;SDS011;11504;43.334;21.918;2023-06-14T08:09:33;10.0;;;8.0;;
22673;SDS011;11504;43.334;21.918;2023-06-14T08:14:11;10.0;;;8.0;;
22673;SDS011;11504;43.334;21.918;2023-06-14T08:18:48;10.0;;;9.0;;
22673;SDS011;11504;43.334;21.918;2023-06-14T08:23:25;10.0;;;9.0;;
22673;SDS011;11504;43.334;21.918;2023-06-14T08:28:01;10.0;;;9.0;;
22673;SDS011;11504;43.334;21.918;2023-06-14T08:32:38;10.0;;;9.0;;
22673;SDS011;11504;43.334;21.918;2023-06-14T08:37:14;9.0;;;9.0;;
22673;SDS011;11504;43.334;21.918;2023-06-14T08:41:50;9.0;;;9.0;;
22673;SDS011;11504;43.334;21.918;2023-06-14T08:46:32;9.0;;;9.0;;
22673;SDS011;11504;43.334;21.918;2023-06-14T08:51:12;8.0;;;8.0;;
22673;SDS011;11504;43.334;21.918;2023-06-14T08:55:55;8.0;;;8.0;;
22673;SDS011;11504;43.334;21.918;2023-06-14T09:00:31;7.0;;;6.0;;
22673;SDS011;11504;43.334;21.918;2023-06-14T09:05:09;7.0;;;6.0;;
22673;SDS011;11504;43.334;21.918;2023-06-14T09:09:47;7.0;;;6.0;;
22673;SDS011;11504;43.334;21.918;2023-06-14T09:14:23;7.0;;;6.0;;
22673;SDS011;11504;43.334;21.918;2023-06-14T09:19:00;7.0;;;7.0;;
22673;SDS011;11504;43.334;21.918;2023-06-14T09:23:37;7.0;;;7.0;;
22673;SDS011;11504;43.334;21.918;2023-06-14T09:28:24;6.0;;;6.0;;
22673;SDS011;11504;43.334;21.918;2023-06-14T09:33:04;6.0;;;6.0;;
22673;SDS011;11504;43.334;21.918;2023-06-14T09:37:41;6.0;;;6.0;;
22673;SDS011;11504;43.334;21.918;2023-06-14T09:42:18;6.0;;;6.0;;
22673;SDS011;11504;43.334;21.918;2023-06-14T09:46:55;6.0;;;6.0;;
22673;SDS011;11504;43.334;21.918;2023-06-14T09:51:33;7.0;;;6.0;;
22673;SDS011;11504;43.334;21.918;2023-06-14T09:56:26;7.0;;;6.0;;
22673;SDS011;11504;43.334;21.918;2023-06-14T10:01:17;8.0;;;7.0;;
22673;SDS011;11504;43.334;21.918;2023-06-14T10:06:00;8.0;;;7.0;;
22673;SDS011;11504;43.334;21.918;2023-06-14T10:10:45;8.0;;;7.0;;
22673;SDS011;11504;43.334;21.918;2023-06-14T10:15:24;8.0;;;7.0;;
22673;SDS011;11504;43.334;21.918;2023-06-14T10:20:41;8.0;;;7.0;;
22673;SDS011;11504;43.334;21.918;2023-06-14T10:26:01;8.0;;;7.0;;
22673;SDS011;11504;43.334;21.918;2023-06-14T10:30:37;7.0;;;6.0;;
22673;SDS011;11504;43.334;21.918;2023-06-14T10:35:15;7.0;;;6.0;;
22673;SDS011;11504;43.334;21.918;2023-06-14T10:39:52;6.0;;;6.0;;
22673;SDS011;11504;43.334;21.918;2023-06-14T10:44:31;6.0;;;6.0;;
22673;SDS011;11504;43.334;21.918;2023-06-14T10:49:36;6.0;;;6.0;;
22673;SDS011;11504;43.334;21.918;2023-06-14T10:54:23;6.0;;;6.0;;
22673;SDS011;11504;43.334;21.918;2023-06-14T10:59:03;5.0;;;5.0;;
22673;SDS011;11504;43.334;21.918;2023-06-14T11:03:50;5.0;;;5.0;;
22673;SDS011;11504;43.334;21.918;2023-06-14T11:09:39;6.0;;;6.0;;
22673;SDS011;11504;43.334;21.918;2023-06-14T11:15:13;6.0;;;6.0;;
22673;SDS011;11504;43.334;21.918;2023-06-14T11:19:50;6.0;;;6.0;;
22673;SDS011;11504;43.334;21.918;2023-06-14T11:24:45;6.0;;;6.0;;
22673;SDS011;11504;43.334;21.918;2023-06-14T11:29:22;6.0;;;5.0;;
22673;SDS011;11504;43.334;21.918;2023-06-14T11:33:59;6.0;;;5.0;;
22673;SDS011;11504;43.334;21.918;2023-06-14T11:38:37;5.0;;;4.0;;
22673;SDS011;11504;43.334;21.918;2023-06-14T11:43:13;5.0;;;4.0;;
22673;SDS011;11504;43.334;21.918;2023-06-14T11:47:49;5.0;;;4.0;;
22673;SDS011;11504;43.334;21.918;2023-06-14T11:52:26;5.0;;;4.0;;
22673;SDS011;11504;43.334;21.918;2023-06-14T11:57:04;5.0;;;4.0;;
22673;SDS011;11504;43.334;21.918;2023-06-14T12:01:43;5.0;;;5.0;;
22673;SDS011;11504;43.334;21.918;2023-06-14T12:06:26;5.0;;;5.0;;
22673;SDS011;11504;43.334;21.918;2023-06-14T12:11:10;5.0;;;5.0;;
22673;SDS011;11504;43.334;21.918;2023-06-14T12:15:54;5.0;;;5.0;;
22673;SDS011;11504;43.334;21.918;2023-06-14T12:20:32;5.0;;;5.0;;
22673;SDS011;11504;43.334;21.918;2023-06-14T12:25:09;5.0;;;5.0;;
22673;SDS011;11504;43.334;21.918;2023-06-14T12:30:08;6.0;;;4.0;;
22673;SDS011;11504;43.334;21.918;2023-06-14T12:34:48;6.0;;;4.0;;
22673;SDS011;11504;43.334;21.918;2023-06-14T12:39:24;8.0;;;4.0;;
22673;SDS011;11504;43.334;21.918;2023-06-14T12:44:01;8.0;;;4.0;;
22673;SDS011;11504;43.334;21.918;2023-06-14T12:48:38;8.0;;;5.0;;
22673;SDS011;11504;43.334;21.918;2023-06-14T12:53:15;8.0;;;5.0;;
22673;SDS011;11504;43.334;21.918;2023-06-14T12:57:52;7.0;;;6.0;;
22673;SDS011;11504;43.334;21.918;2023-06-14T13:02:29;7.0;;;6.0;;
22673;SDS011;11504;43.334;21.918;2023-06-14T13:07:05;7.0;;;6.0;;
22673;SDS011;11504;43.334;21.918;2023-06-14T13:11:42;8.0;;;6.0;;
22673;SDS011;11504;43.334;21.918;2023-06-14T13:16:18;8.0;;;6.0;;
22673;SDS011;11504;43.334;21.918;2023-06-14T13:20:55;10.0;;;7.0;;
22673;SDS011;11504;43.334;21.918;2023-06-14T13:25:32;10.0;;;7.0;;
22673;SDS011;11504;43.334;21.918;2023-06-14T13:30:10;10.0;;;8.0;;
22673;SDS011;11504;43.334;21.918;2023-06-14T13:34:49;10.0;;;8.0;;
22673;SDS011;11504;43.334;21.918;2023-06-14T13:39:26;10.0;;;8.0;;
22673;SDS011;11504;43.334;21.918;2023-06-14T13:44:02;10.0;;;8.0;;
22673;SDS011;11504;43.334;21.918;2023-06-14T13:48:39;8.0;;;8.0;;
22673;SDS011;11504;43.334;21.918;2023-06-14T13:53:16;8.0;;;8.0;;
22673;SDS011;11504;43.334;21.918;2023-06-14T13:57:52;7.0;;;7.0;;
22673;SDS011;11504;43.334;21.918;2023-06-14T14:02:28;7.0;;;7.0;;
22673;SDS011;11504;43.334;21.918;2023-06-14T14:07:05;7.0;;;7.0;;
22673;SDS011;11504;43.334;21.918;2023-06-14T14:11:43;7.0;;;6.0;;
22673;SDS011;11504;43.334;21.918;2023-06-14T14:16:20;7.0;;;6.0;;
22673;SDS011;11504;43.334;21.918;2023-06-14T14:20:57;7.0;;;6.0;;
22673;SDS011;11504;43.334;21.918;2023-06-14T14:25:34;7.0;;;6.0;;
22673;SDS011;11504;43.334;21.918;2023-06-14T14:30:11;6.0;;;6.0;;
22673;SDS011;11504;43.334;21.918;2023-06-14T14:34:50;6.0;;;6.0;;
22673;SDS011;11504;43.334;21.918;2023-06-14T14:39:26;5.0;;;5.0;;
22673;SDS011;11504;43.334;21.918;2023-06-14T14:44:04;5.0;;;5.0;;
22673;SDS011;11504;43.334;21.918;2023-06-14T14:48:42;6.0;;;6.0;;
22673;SDS011;11504;43.334;21.918;2023-06-14T14:53:18;6.0;;;6.0;;
22673;SDS011;11504;43.334;21.918;2023-06-14T14:57:55;8.0;;;7.0;;
22673;SDS011;11504;43.334;21.918;2023-06-14T15:02:32;8.0;;;7.0;;
22673;SDS011;11504;43.334;21.918;2023-06-14T15:07:09;8.0;;;7.0;;
22673;SDS011;11504;43.334;21.918;2023-06-14T15:11:46;8.0;;;8.0;;
22673;SDS011;11504;43.334;21.918;2023-06-14T15:16:22;8.0;;;8.0;;
22673;SDS011;11504;43.334;21.918;2023-06-14T15:20:59;8.0;;;8.0;;
22673;SDS011;11504;43.334;21.918;2023-06-14T15:25:36;8.0;;;8.0;;
22673;SDS011;11504;43.334;21.918;2023-06-14T15:30:13;8.0;;;8.0;;
22673;SDS011;11504;43.334;21.918;2023-06-14T15:34:49;8.0;;;8.0;;
22673;SDS011;11504;43.334;21.918;2023-06-14T15:39:26;9.0;;;8.0;;
22673;SDS011;11504;43.334;21.918;2023-06-14T15:44:04;9.0;;;8.0;;
22673;SDS011;11504;43.334;21.918;2023-06-14T15:48:46;9.0;;;8.0;;
22673;SDS011;11504;43.334;21.918;2023-06-14T15:53:23;9.0;;;8.0;;
22673;SDS011;11504;43.334;21.918;2023-06-14T15:57:59;9.0;;;8.0;;
22673;SDS011;11504;43.334;21.918;2023-06-14T16:02:36;9.0;;;8.0;;
22673;SDS011;11504;43.334;21.918;2023-06-14T16:07:13;9.0;;;8.0;;
22673;SDS011;11504;43.334;21.918;2023-06-14T16:11:50;10.0;;;9.0;;
22673;SDS011;11504;43.334;21.918;2023-06-14T16:16:27;10.0;;;9.0;;
22673;SDS011;11504;43.334;21.918;2023-06-14T16:21:03;11.0;;;10.0;;
22673;SDS011;11504;43.334;21.918;2023-06-14T16:25:40;11.0;;;10.0;;
22673;SDS011;11504;43.334;21.918;2023-06-14T16:30:17;10.0;;;9.0;;
22673;SDS011;11504;43.334;21.918;2023-06-14T16:34:53;10.0;;;9.0;;
22673;SDS011;11504;43.334;21.918;2023-06-14T16:39:30;8.0;;;8.0;;
22673;SDS011;11504;43.334;21.918;2023-06-14T16:44:06;8.0;;;8.0;;
22673;SDS011;11504;43.334;21.918;2023-06-14T16:48:42;10.0;;;9.0;;
22673;SDS011;11504;43.334;21.918;2023-06-14T16:53:19;10.0;;;9.0;;
22673;SDS011;11504;43.334;21.918;2023-06-14T16:57:56;11.0;;;10.0;;
22673;SDS011;11504;43.334;21.918;2023-06-14T17:02:33;11.0;;;10.0;;
22673;SDS011;11504;43.334;21.918;2023-06-14T17:07:09;11.0;;;10.0;;
22673;SDS011;11504;43.334;21.918;2023-06-14T17:11:46;10.0;;;10.0;;
22673;SDS011;11504;43.334;21.918;2023-06-14T17:16:22;10.0;;;10.0;;
22673;SDS011;11504;43.334;21.918;2023-06-14T17:20:58;10.0;;;10.0;;
22673;SDS011;11504;43.334;21.918;2023-06-14T17:25:35;10.0;;;10.0;;
22673;SDS011;11504;43.334;21.918;2023-06-14T17:30:13;9.0;;;8.0;;
22673;SDS011;11504;43.334;21.918;2023-06-14T17:34:51;9.0;;;8.0;;
22673;SDS011;11504;43.334;21.918;2023-06-14T17:39:27;8.0;;;7.0;;
22673;SDS011;11504;43.334;21.918;2023-06-14T17:44:04;8.0;;;7.0;;
22673;SDS011;11504;43.334;21.918;2023-06-14T17:48:40;8.0;;;8.0;;
22673;SDS011;11504;43.334;21.918;2023-06-14T17:53:17;8.0;;;8.0;;
22673;SDS011;11504;43.334;21.918;2023-06-14T17:57:54;9.0;;;9.0;;
22673;SDS011;11504;43.334;21.918;2023-06-14T18:02:30;9.0;;;9.0;;
22673;SDS011;11504;43.334;21.918;2023-06-14T18:07:07;9.0;;;9.0;;
22673;SDS011;11504;43.334;21.918;2023-06-14T18:11:43;10.0;;;10.0;;
22673;SDS011;11504;43.334;21.918;2023-06-14T18:16:20;10.0;;;10.0;;
22673;SDS011;11504;43.334;21.918;2023-06-14T18:20:56;10.0;;;10.0;;
22673;SDS011;11504;43.334;21.918;2023-06-14T18:25:33;10.0;;;10.0;;
22673;SDS011;11504;43.334;21.918;2023-06-14T18:30:10;14.0;;;14.0;;
22673;SDS011;11504;43.334;21.918;2023-06-14T18:34:49;14.0;;;14.0;;
22673;SDS011;11504;43.334;21.918;2023-06-14T18:39:25;18.0;;;17.0;;
22673;SDS011;11504;43.334;21.918;2023-06-14T18:44:02;18.0;;;17.0;;
22673;SDS011;11504;43.334;21.918;2023-06-14T18:48:39;16.0;;;16.0;;
22673;SDS011;11504;43.334;21.918;2023-06-14T18:53:15;16.0;;;16.0;;
22673;SDS011;11504;43.334;21.918;2023-06-14T18:57:52;14.0;;;14.0;;
22673;SDS011;11504;43.334;21.918;2023-06-14T19:02:29;14.0;;;14.0;;
22673;SDS011;11504;43.334;21.918;2023-06-14T19:07:05;14.0;;;14.0;;
22673;SDS011;11504;43.334;21.918;2023-06-14T19:11:41;14.0;;;14.0;;
22673;SDS011;11504;43.334;21.918;2023-06-14T19:16:18;14.0;;;14.0;;
22673;SDS011;11504;43.334;21.918;2023-06-14T19:20:54;14.0;;;13.0;;
22673;SDS011;11504;43.334;21.918;2023-06-14T19:25:30;14.0;;;13.0;;
22673;SDS011;11504;43.334;21.918;2023-06-14T19:30:07;14.0;;;12.0;;
22673;SDS011;11504;43.334;21.918;2023-06-14T19:34:45;14.0;;;12.0;;
22673;SDS011;11504;43.334;21.918;2023-06-14T19:39:21;13.0;;;12.0;;
22673;SDS011;11504;43.334;21.918;2023-06-14T19:43:57;13.0;;;12.0;;
22673;SDS011;11504;43.334;21.918;2023-06-14T19:48:33;12.0;;;11.0;;
22673;SDS011;11504;43.334;21.918;2023-06-14T19:53:10;12.0;;;11.0;;
22673;SDS011;11504;43.334;21.918;2023-06-14T19:57:47;11.0;;;10.0;;
22673;SDS011;11504;43.334;21.918;2023-06-14T20:02:23;11.0;;;10.0;;
22673;SDS011;11504;43.334;21.918;2023-06-14T20:07:00;11.0;;;10.0;;
22673;SDS011;11504;43.334;21.918;2023-06-14T20:11:36;12.0;;;10.0;;
22673;SDS011;11504;43.334;21.918;2023-06-14T20:16:15;12.0;;;10.0;;
22673;SDS011;11504;43.334;21.918;2023-06-14T20:20:51;12.0;;;11.0;;
22673;SDS011;11504;43.334;21.918;2023-06-14T20:25:28;12.0;;;11.0;;
22673;SDS011;11504;43.334;21.918;2023-06-14T20:30:05;12.0;;;12.0;;
22673;SDS011;11504;43.334;21.918;2023-06-14T20:34:46;12.0;;;12.0;;
22673;SDS011;11504;43.334;21.918;2023-06-14T20:39:22;13.0;;;12.0;;
22673;SDS011;11504;43.334;21.918;2023-06-14T20:43:59;13.0;;;12.0;;
22673;SDS011;11504;43.334;21.918;2023-06-14T20:48:36;14.0;;;14.0;;
22673;SDS011;11504;43.334;21.918;2023-06-14T20:53:13;14.0;;;14.0;;
22673;SDS011;11504;43.334;21.918;2023-06-14T20:57:50;16.0;;;15.0;;
22673;SDS011;11504;43.334;21.918;2023-06-14T21:02:26;16.0;;;15.0;;
22673;SDS011;11504;43.334;21.918;2023-06-14T21:07:03;16.0;;;15.0;;
22673;SDS011;11504;43.334;21.918;2023-06-14T21:11:41;18.0;;;17.0;;
22673;SDS011;11504;43.334;21.918;2023-06-14T21:16:17;18.0;;;17.0;;
22673;SDS011;11504;43.334;21.918;2023-06-14T21:20:54;20.0;;;19.0;;
22673;SDS011;11504;43.334;21.918;2023-06-14T21:25:30;20.0;;;19.0;;
22673;SDS011;11504;43.334;21.918;2023-06-14T21:30:07;16.0;;;16.0;;
22673;SDS011;11504;43.334;21.918;2023-06-14T21:34:50;16.0;;;16.0;;
22673;SDS011;11504;43.334;21.918;2023-06-14T21:39:27;13.0;;;12.0;;
22673;SDS011;11504;43.334;21.918;2023-06-14T21:44:04;13.0;;;12.0;;
22673;SDS011;11504;43.334;21.918;2023-06-14T21:48:40;12.0;;;11.0;;
22673;SDS011;11504;43.334;21.918;2023-06-14T21:53:16;12.0;;;11.0;;
22673;SDS011;11504;43.334;21.918;2023-06-14T21:57:53;10.0;;;10.0;;
22673;SDS011;11504;43.334;21.918;2023-06-14T22:02:30;10.0;;;10.0;;
22673;SDS011;11504;43.334;21.918;2023-06-14T22:07:06;10.0;;;10.0;;
22673;SDS011;11504;43.334;21.918;2023-06-14T22:11:43;11.0;;;11.0;;
22673;SDS011;11504;43.334;21.918;2023-06-14T22:16:20;11.0;;;11.0;;
22673;SDS011;11504;43.334;21.918;2023-06-14T22:20:57;12.0;;;12.0;;
22673;SDS011;11504;43.334;21.918;2023-06-14T22:25:33;12.0;;;12.0;;
22673;SDS011;11504;43.334;21.918;2023-06-14T22:30:10;12.0;;;12.0;;
22673;SDS011;11504;43.334;21.918;2023-06-14T22:34:51;12.0;;;12.0;;
22673;SDS011;11504;43.334;21.918;2023-06-14T22:39:28;13.0;;;12.0;;
22673;SDS011;11504;43.334;21.918;2023-06-14T22:44:05;13.0;;;12.0;;
22673;SDS011;11504;43.334;21.918;2023-06-14T22:48:42;13.0;;;11.0;;
22673;SDS011;11504;43.334;21.918;2023-06-14T22:53:18;13.0;;;11.0;;
22673;SDS011;11504;43.334;21.918;2023-06-14T22:57:55;13.0;;;10.0;;
22673;SDS011;11504;43.334;21.918;2023-06-14T23:02:32;13.0;;;10.0;;
22673;SDS011;11504;43.334;21.918;2023-06-14T23:07:09;13.0;;;10.0;;
22673;SDS011;11504;43.334;21.918;2023-06-14T23:11:45;13.0;;;11.0;;
22673;SDS011;11504;43.334;21.918;2023-06-14T23:16:22;13.0;;;11.0;;
22673;SDS011;11504;43.334;21.918;2023-06-14T23:20:59;13.0;;;12.0;;
22673;SDS011;11504;43.334;21.918;2023-06-14T23:25:36;13.0;;;12.0;;
22673;SDS011;11504;43.334;21.918;2023-06-14T23:30:13;11.0;;;10.0;;
22673;SDS011;11504;43.334;21.918;2023-06-14T23:34:50;11.0;;;10.0;;
22673;SDS011;11504;43.334;21.918;2023-06-14T23:39:26;9.0;;;9.0;;
22673;SDS011;11504;43.334;21.918;2023-06-14T23:44:03;9.0;;;9.0;;
22673;SDS011;11504;43.334;21.918;2023-06-14T23:48:40;10.0;;;10.0;;
22673;SDS011;11504;43.334;21.918;2023-06-14T23:53:16;10.0;;;10.0;;
22673;SDS011;11504;43.334;21.918;2023-06-14T23:57:53;12.0;;;10.0;;
